Strona główna
METAR-TAF:

METAR-TAF

Lotnisko :

Lotnisko Ronaldsway

Wyspa Man,

Szerokość geograficzna: 54-05N, Długość geograficzna: 004-38W, wysokość: 17 m

Aktualna obserwacja pogody

Raport powstał 20 minut temu, godzina 20:20 UTC
Wiatr 12 kt od południowo-południowy wschód
Temperatura 8°C
Wilgotność 76%
Ciśnienie 1016 hPa
Widzialność 10 km lub więcej
Mało chmury na wysokości 3000 ft
Rozproszone chmury na wysokości 4000 ft

METAR: EGNS 272020Z 15012KT 9999 FEW030 SCT040 08/04 Q1016 NOSIG

czas: 20:40 (20:40 UTC)

Prognoza

Raport powstał 3 godziny i 40 minut temu, godzina 17:00 UTC
Prognoza ważna od 27 godzina 18 UTC do 27 godzina 22 UTC
Wiatr 6 kt od południowy wschód
Widzialność 10 km lub więcej
Mało chmury na wysokości 3000 ft
Przerywane chmury na wysokości 4500 ft

TAF: EGNS 271700Z 2718/2722 14006KT 9999 FEW030 BKN045

Obserwacja i prognoza pogody dla ponad 4000 lotnisk (raport METAR i TAF).

Dostępne stacje oznaczono żółtymi i czerwonymi punktami na mapie.

Najedź kursorem aby zobaczyć nazwę stacji.

Kliknij aby zobaczyć obserwacje i prognozy pogody.

Aby zmienić mapę: kliknij na zielony przycisk z czarnym krzyżykiem, aby powiększyć; na zielony przycisk z myślnikiem, aby pomniejszyć; na zielone strzałki, aby przejść do map sąsiednich.


METAR-TAF: